Terminal Aerodrome Forecast
Issued by NWS Grand Forks, ND

Home | Current Version | Previous Version | Text Only | Print | Product List | Glossary On
Versions: 1 2 3 4 5 6 7 8 9 10 11 12 13 14 15 16 17 18 19 20 21 22 23 24 25 26 27
235
FTUS43 KFGF 180258 AAB
TAFFAR
TAF AMD
KFAR 180258Z 1803/1824 17007KT 2SM BR BKN006
      TEMPO 1803/1805 1/2SM FZFG BKN002
     FM180500 18012KT 5SM BR SCT015
     FM181400 20008KT P6SM OVC080
     FM182100 23010KT P6SM OVC040=

USA.gov is the U.S. government's official web portal to all federal, state and local government web resources and services.